createdAt,value
2022-12-11T00:02:06.904Z,65.63
2022-12-11T00:04:37.547Z,57.13
2022-12-11T00:07:07.769Z,45.03
2022-12-11T00:09:35.982Z,56.30
2022-12-11T00:12:07.478Z,52.80
2022-12-11T00:14:36.078Z,48.63
2022-12-11T00:17:05.033Z,47.70
2022-12-11T00:19:33.595Z,49.60
2022-12-11T00:22:01.704Z,51.93
2022-12-11T00:24:29.962Z,49.47
2022-12-11T00:26:58.383Z,52.20
2022-12-11T00:29:30.407Z,46.30
2022-12-11T00:31:58.620Z,51.97
2022-12-11T00:34:27.404Z,48.27
2022-12-11T00:36:59.065Z,40.17
2022-12-11T00:39:27.309Z,41.53
2022-12-11T00:41:55.585Z,47.50
2022-12-11T00:44:26.286Z,44.33
2022-12-11T00:46:57.951Z,40.67
2022-12-11T00:49:26.114Z,42.13
2022-12-11T00:56:24.518Z,34.93
2022-12-11T00:58:53.186Z,38.90
2022-12-11T01:01:23.540Z,39.90
2022-12-11T01:03:55.785Z,36.60
2022-12-11T01:06:26.175Z,37.53
2022-12-11T01:09:10.989Z,35.97
2022-12-11T01:11:39.535Z,36.23
2022-12-11T01:14:07.959Z,32.27
2022-12-11T01:16:36.093Z,32.63
2022-12-11T01:19:07.813Z,28.37
2022-12-11T01:21:35.940Z,29.43
2022-12-11T01:24:04.109Z,32.47
2022-12-11T01:26:32.263Z,35.10
2022-12-11T01:29:02.669Z,34.37
2022-12-11T01:31:33.712Z,30.40
2022-12-11T01:34:01.911Z,35.00
2022-12-11T01:36:33.440Z,31.47
2022-12-11T01:39:01.658Z,32.43
2022-12-11T01:41:29.854Z,29.57
2022-12-11T01:44:03.574Z,31.93
2022-12-11T01:46:33.754Z,28.83
2022-12-11T01:49:03.653Z,28.03
2022-12-11T01:51:39.125Z,25.57
2022-12-11T01:54:12.530Z,27.37
2022-12-11T01:56:43.262Z,26.87
2022-12-11T01:59:12.155Z,34.40
2022-12-11T02:01:47.027Z,26.53
2022-12-11T02:04:17.049Z,29.83
2022-12-11T02:06:50.866Z,33.13
2022-12-11T02:09:22.826Z,32.57
2022-12-11T02:12:02.393Z,39.40
2022-12-11T02:14:39.650Z,34.27
2022-12-11T02:17:14.523Z,39.80
2022-12-11T02:19:59.045Z,27.43
2022-12-11T02:22:54.703Z,30.67
2022-12-11T02:25:29.509Z,30.57
2022-12-11T02:28:18.460Z,31.93
2022-12-11T02:30:51.342Z,29.63
2022-12-11T02:33:24.486Z,31.30
2022-12-11T02:35:55.534Z,25.57
2022-12-11T02:38:28.526Z,26.90
2022-12-11T02:40:58.867Z,27.43
2022-12-11T02:43:32.048Z,28.63
2022-12-11T02:46:01.870Z,29.73
2022-12-11T02:48:31.382Z,25.47
2022-12-11T02:51:01.165Z,31.30
2022-12-11T02:53:32.328Z,25.60
2022-12-11T02:56:08.135Z,23.03
2022-12-11T02:58:40.925Z,26.00
2022-12-11T03:01:09.193Z,24.10
2022-12-11T03:03:37.341Z,22.50
2022-12-11T03:06:05.910Z,30.53
2022-12-11T03:08:34.188Z,27.07
2022-12-11T03:11:04.502Z,22.60
2022-12-11T03:13:32.658Z,26.57
2022-12-11T03:16:13.178Z,22.77
2022-12-11T03:18:47.899Z,22.50
2022-12-11T03:21:24.454Z,27.43
2022-12-11T03:24:02.852Z,22.37
2022-12-11T03:26:33.992Z,25.23
2022-12-11T03:29:05.078Z,23.93
2022-12-11T03:31:40.302Z,24.27
2022-12-11T03:34:14.950Z,29.40
2022-12-11T03:36:46.989Z,20.33
2022-12-11T03:39:20.284Z,20.80
2022-12-11T03:41:51.740Z,25.90
2022-12-11T03:44:23.789Z,23.17
2022-12-11T03:46:56.050Z,21.63
2022-12-11T03:49:29.726Z,24.17
2022-12-11T03:52:00.705Z,23.70
2022-12-11T03:54:32.391Z,22.87
2022-12-11T03:57:04.033Z,22.43
2022-12-11T03:59:32.099Z,26.23
2022-12-11T04:02:01.768Z,23.17
2022-12-11T04:04:29.919Z,25.83
2022-12-11T04:07:00.319Z,24.60
2022-12-11T04:09:28.526Z,22.03
2022-12-11T04:11:56.638Z,24.30
2022-12-11T04:14:44.477Z,26.50
2022-12-11T04:17:34.009Z,24.27
2022-12-11T04:20:19.550Z,26.97
2022-12-11T04:23:05.066Z,24.33
2022-12-11T04:25:35.436Z,21.57
2022-12-11T04:28:03.624Z,21.73
2022-12-11T04:30:34.323Z,23.47
2022-12-11T04:33:04.081Z,28.20
2022-12-11T04:35:34.502Z,24.57
2022-12-11T04:38:02.721Z,25.20
2022-12-11T04:40:31.006Z,26.13
2022-12-11T04:42:59.288Z,26.47
2022-12-11T04:45:27.346Z,23.43
2022-12-11T04:47:57.727Z,24.70
2022-12-11T04:50:27.507Z,24.60
2022-12-11T04:52:56.917Z,32.60
2022-12-11T04:55:25.368Z,25.83
2022-12-11T04:57:55.531Z,23.87
2022-12-11T05:00:25.653Z,28.07
2022-12-11T05:02:56.134Z,23.60
2022-12-11T05:05:24.261Z,27.70
2022-12-11T05:07:56.293Z,29.77
2022-12-11T05:10:24.805Z,28.13
2022-12-11T05:12:55.430Z,26.17
2022-12-11T05:15:23.503Z,24.30
2022-12-11T05:17:53.964Z,27.67
2022-12-11T05:20:24.460Z,23.43
2022-12-11T05:22:52.583Z,26.93
2022-12-11T05:25:24.380Z,25.30
2022-12-11T05:27:54.567Z,29.87
2022-12-11T05:30:22.876Z,27.97
2022-12-11T05:32:51.002Z,23.07
2022-12-11T05:35:19.168Z,29.93
2022-12-11T05:37:47.425Z,25.13
2022-12-11T05:40:18.209Z,30.67
2022-12-11T05:42:47.654Z,22.53
2022-12-11T05:45:15.739Z,31.13
2022-12-11T05:47:45.983Z,25.00
2022-12-11T05:50:14.041Z,32.60
2022-12-11T05:52:44.662Z,27.80
2022-12-11T05:55:12.981Z,27.63
2022-12-11T05:57:43.649Z,30.43
2022-12-11T06:00:14.094Z,22.23
2022-12-11T06:02:42.430Z,28.67
2022-12-11T06:05:13.298Z,23.23
2022-12-11T06:07:41.582Z,24.23
2022-12-11T06:10:11.123Z,26.43
2022-12-11T06:12:39.326Z,26.33
2022-12-11T06:15:08.615Z,25.57
2022-12-11T06:17:40.667Z,27.80
2022-12-11T06:20:11.786Z,24.97
2022-12-11T06:22:39.940Z,22.37
2022-12-11T06:25:09.711Z,31.13
2022-12-11T06:27:40.261Z,27.70
2022-12-11T06:30:09.843Z,24.37
2022-12-11T06:32:38.071Z,24.37
2022-12-11T06:35:08.656Z,19.80
2022-12-11T06:37:40.582Z,20.90
2022-12-11T06:40:12.576Z,22.67
2022-12-11T06:42:43.109Z,23.53
2022-12-11T06:45:13.726Z,22.10
2022-12-11T06:47:42.102Z,19.67
2022-12-11T06:50:11.814Z,23.40
2022-12-11T06:52:39.901Z,23.03
2022-12-11T06:55:10.857Z,21.33
2022-12-11T06:57:39.502Z,21.70
2022-12-11T07:00:08.890Z,21.67
2022-12-11T07:02:39.163Z,21.60
2022-12-11T07:05:08.312Z,22.00
2022-12-11T07:07:37.832Z,21.40
2022-12-11T07:10:08.533Z,29.27
2022-12-11T07:12:37.002Z,17.57
2022-12-11T07:15:08.704Z,21.27
2022-12-11T07:17:37.096Z,19.60
2022-12-11T07:20:09.243Z,16.03
2022-12-11T07:22:44.627Z,21.33
2022-12-11T07:25:17.006Z,17.93
2022-12-11T07:27:47.330Z,17.00
2022-12-11T07:30:15.571Z,16.60
2022-12-11T07:32:44.653Z,15.90
2022-12-11T07:35:12.925Z,17.53
2022-12-11T07:37:43.070Z,18.47
2022-12-11T07:40:14.519Z,16.17
2022-12-11T07:42:46.139Z,17.93
2022-12-11T07:45:16.880Z,15.23
2022-12-11T07:47:47.124Z,14.07
2022-12-11T07:50:15.349Z,16.30
2022-12-11T07:52:44.800Z,13.47
2022-12-11T07:55:13.341Z,13.70
2022-12-11T07:57:41.758Z,17.30
2022-12-11T08:00:11.589Z,17.20
2022-12-11T08:02:45.231Z,16.10
2022-12-11T08:05:15.931Z,19.47
2022-12-11T08:07:45.502Z,19.30
2022-12-11T08:10:15.967Z,22.13
2022-12-11T08:12:46.419Z,24.17
2022-12-11T08:15:16.805Z,19.23
2022-12-11T08:17:45.030Z,20.83
2022-12-11T08:20:13.195Z,21.60
2022-12-11T08:22:41.341Z,17.40
2022-12-11T08:25:11.285Z,18.87
2022-12-11T08:27:42.045Z,23.40
2022-12-11T08:30:11.580Z,19.30
2022-12-11T08:32:42.249Z,17.87
2022-12-11T08:35:11.101Z,20.87
2022-12-11T08:37:41.694Z,18.10
2022-12-11T08:40:12.343Z,18.83
2022-12-11T08:42:40.438Z,20.23
2022-12-11T08:45:11.598Z,23.33
2022-12-11T08:47:40.027Z,20.83
2022-12-11T08:50:08.476Z,20.37
2022-12-11T08:52:36.709Z,22.30
2022-12-11T08:55:05.299Z,18.90
2022-12-11T08:57:39.834Z,22.67
2022-12-11T09:00:10.182Z,20.93
2022-12-11T09:02:38.417Z,23.60
2022-12-11T09:05:09.508Z,22.87
2022-12-11T09:07:40.374Z,23.13
2022-12-11T09:10:10.645Z,21.47
2022-12-11T09:12:42.712Z,20.93
2022-12-11T09:15:11.896Z,21.97
2022-12-11T09:17:42.571Z,19.67
2022-12-11T09:20:11.212Z,19.30
2022-12-11T09:22:42.790Z,17.47
2022-12-11T09:25:11.465Z,21.67
2022-12-11T09:27:39.720Z,23.87
2022-12-11T09:30:10.725Z,18.43
2022-12-11T09:32:41.298Z,22.43
2022-12-11T09:35:11.353Z,19.07
2022-12-11T09:37:39.933Z,25.13
2022-12-11T09:40:12.547Z,22.13
2022-12-11T09:42:52.014Z,17.27
2022-12-11T09:45:22.225Z,19.60
2022-12-11T09:47:53.180Z,20.57
2022-12-11T09:50:25.199Z,21.53
2022-12-11T09:53:06.508Z,19.20
2022-12-11T09:55:43.257Z,18.27
2022-12-11T09:58:24.136Z,22.27
2022-12-11T10:01:00.459Z,16.73
2022-12-11T10:03:52.140Z,17.07
2022-12-11T10:06:26.639Z,17.60
2022-12-11T10:09:07.190Z,22.87
2022-12-11T10:12:00.153Z,20.67
2022-12-11T10:14:41.458Z,22.13
2022-12-11T10:17:13.675Z,19.77
2022-12-11T10:19:42.962Z,20.63
2022-12-11T10:22:19.764Z,19.47
2022-12-11T10:25:11.631Z,20.03
2022-12-11T10:27:41.666Z,21.13
2022-12-11T10:30:24.171Z,16.40
2022-12-11T10:32:58.325Z,21.60
2022-12-11T10:35:33.101Z,24.33
2022-12-11T10:38:13.674Z,19.30
2022-12-11T10:40:45.293Z,18.43
2022-12-11T10:43:14.062Z,21.10
2022-12-11T10:45:52.823Z,18.87
2022-12-11T10:48:23.712Z,20.10
2022-12-11T10:51:01.230Z,22.63
2022-12-11T10:53:30.144Z,21.47
2022-12-11T10:55:59.170Z,22.23
2022-12-11T10:58:31.844Z,21.97
2022-12-11T11:01:12.260Z,22.33
2022-12-11T11:03:55.398Z,28.67
2022-12-11T11:06:25.716Z,23.13
2022-12-11T11:08:56.167Z,22.00
2022-12-11T11:11:28.082Z,21.47
2022-12-11T11:14:14.273Z,20.97
2022-12-11T11:16:46.453Z,19.37
2022-12-11T11:19:25.665Z,19.13
2022-12-11T11:21:56.312Z,21.13
2022-12-11T11:24:29.890Z,23.10
2022-12-11T11:27:14.396Z,22.97
2022-12-11T11:29:43.505Z,22.70
2022-12-11T11:32:20.967Z,23.00
2022-12-11T11:34:50.455Z,20.93
2022-12-11T11:37:29.722Z,25.03
2022-12-11T11:40:04.284Z,21.97
2022-12-11T11:42:44.509Z,19.93
2022-12-11T11:45:17.363Z,22.43
2022-12-11T11:47:53.891Z,20.47
2022-12-11T11:50:27.573Z,22.23
2022-12-11T11:53:03.408Z,21.87
2022-12-11T11:55:42.199Z,25.03
2022-12-11T11:58:16.444Z,21.07
2022-12-11T12:00:44.622Z,20.47
2022-12-11T12:03:15.256Z,19.00
2022-12-11T12:05:55.009Z,19.10
2022-12-11T12:08:39.041Z,20.23
2022-12-11T12:11:13.800Z,21.67
2022-12-11T12:13:51.986Z,21.33
2022-12-11T12:16:52.237Z,21.03
2022-12-11T12:19:38.199Z,24.10
2022-12-11T12:22:19.374Z,21.17
2022-12-11T12:24:54.156Z,22.90
2022-12-11T12:27:51.607Z,21.57
2022-12-11T12:30:22.797Z,23.47
2022-12-11T12:33:08.953Z,22.73
2022-12-11T12:35:38.921Z,23.37
2022-12-11T12:38:17.463Z,24.33
2022-12-11T12:40:56.680Z,24.13
2022-12-11T12:43:49.284Z,20.13
2022-12-11T12:46:30.190Z,22.73
2022-12-11T12:49:01.248Z,21.00
2022-12-11T12:51:29.974Z,24.10
2022-12-11T12:54:03.872Z,19.47
2022-12-11T12:56:35.100Z,26.77
2022-12-11T12:59:05.433Z,23.47
2022-12-11T13:01:36.037Z,21.67
2022-12-11T13:04:06.706Z,26.03
2022-12-11T13:06:38.838Z,26.97
2022-12-11T13:09:18.053Z,24.27
2022-12-11T13:11:47.237Z,20.60
2022-12-11T13:14:31.749Z,23.70
2022-12-11T13:17:27.269Z,20.93
2022-12-11T13:20:23.276Z,20.90
2022-12-11T13:23:11.391Z,28.17
2022-12-11T13:25:50.808Z,23.67
2022-12-11T13:28:34.408Z,27.37
2022-12-11T13:31:27.855Z,21.00
2022-12-11T13:33:58.154Z,23.77
2022-12-11T13:36:32.551Z,24.73
2022-12-11T13:39:04.640Z,29.80
2022-12-11T13:41:37.597Z,26.87
2022-12-11T13:44:07.603Z,23.00
2022-12-11T13:46:38.326Z,18.13
2022-12-11T13:49:09.692Z,19.73
2022-12-11T13:51:40.315Z,25.07
2022-12-11T13:54:17.540Z,26.93
2022-12-11T13:56:59.273Z,26.50
2022-12-11T13:59:31.128Z,26.40
2022-12-11T14:02:03.989Z,22.87
2022-12-11T14:04:35.829Z,24.03
2022-12-11T14:07:08.720Z,21.97
2022-12-11T14:09:40.383Z,23.87
2022-12-11T14:12:18.664Z,26.13
2022-12-11T14:14:53.291Z,29.27
2022-12-11T14:17:26.866Z,28.60
2022-12-11T14:20:00.371Z,25.40
2022-12-11T14:22:30.567Z,28.10
2022-12-11T14:25:03.454Z,28.80
2022-12-11T14:27:32.944Z,21.37
2022-12-11T14:30:12.404Z,27.43
2022-12-11T14:32:45.634Z,28.57
2022-12-11T14:35:24.304Z,31.07
2022-12-11T14:37:53.444Z,31.27
2022-12-11T14:40:25.519Z,25.90
2022-12-11T14:43:03.044Z,24.53
2022-12-11T14:45:36.301Z,19.43
2022-12-11T14:48:10.720Z,24.13
2022-12-11T14:50:43.969Z,27.30
2022-12-11T14:53:16.692Z,22.80
2022-12-11T14:55:44.942Z,21.33
2022-12-11T14:58:21.742Z,24.67
2022-12-11T15:01:04.515Z,23.07
2022-12-11T15:03:36.150Z,23.97
2022-12-11T15:06:26.564Z,23.83
2022-12-11T15:08:57.681Z,21.17
2022-12-11T15:11:33.048Z,22.17
2022-12-11T15:14:05.633Z,26.47
2022-12-11T15:16:40.604Z,26.00
2022-12-11T15:19:21.092Z,24.37
2022-12-11T15:21:52.198Z,22.07
2022-12-11T15:24:29.569Z,24.73
2022-12-11T15:27:01.715Z,23.33
2022-12-11T15:29:36.093Z,25.50
2022-12-11T15:32:18.598Z,23.60
2022-12-11T15:34:51.138Z,22.60
2022-12-11T15:37:23.216Z,18.97
2022-12-11T15:39:51.689Z,19.33
2022-12-11T15:42:27.434Z,23.20
2022-12-11T15:45:06.905Z,23.80
2022-12-11T15:47:35.014Z,26.10
2022-12-11T15:50:09.143Z,27.07
2022-12-11T15:52:37.548Z,27.92
2022-12-11T15:55:06.287Z,24.10
2022-12-11T15:57:35.030Z,24.90
2022-12-11T16:00:07.413Z,22.50
2022-12-11T16:02:35.766Z,23.10
2022-12-11T16:05:06.512Z,23.33
2022-12-11T16:07:35.323Z,21.60
2022-12-11T16:10:03.505Z,25.70
2022-12-11T16:12:31.691Z,25.13
2022-12-11T16:14:59.949Z,24.57
2022-12-11T16:17:32.336Z,23.53
2022-12-11T16:20:02.591Z,24.60
2022-12-11T16:22:31.172Z,22.03
2022-12-11T16:25:00.328Z,21.00
2022-12-11T16:27:28.492Z,20.90
2022-12-11T16:29:56.732Z,19.80
2022-12-11T16:32:24.853Z,20.33
2022-12-11T16:34:59.902Z,21.67
2022-12-11T16:37:28.061Z,20.73
2022-12-11T16:39:56.472Z,22.20
2022-12-11T16:42:24.613Z,20.43
2022-12-11T16:44:52.655Z,23.80
2022-12-11T16:47:21.022Z,22.70
2022-12-11T16:49:49.169Z,22.50
2022-12-11T16:52:22.076Z,25.13
2022-12-11T16:54:50.632Z,22.07
2022-12-11T16:57:18.772Z,21.47
2022-12-11T16:59:49.297Z,19.60
2022-12-11T17:02:19.787Z,21.87
2022-12-11T17:04:53.644Z,20.63
2022-12-11T17:07:26.214Z,22.40
2022-12-11T17:09:54.368Z,17.67
2022-12-11T17:12:27.719Z,18.00
2022-12-11T17:14:58.217Z,22.17
2022-12-11T17:17:26.638Z,22.07
2022-12-11T17:19:54.774Z,20.97
2022-12-11T17:22:27.759Z,22.50
2022-12-11T17:24:58.695Z,23.17
2022-12-11T17:27:27.098Z,20.73
2022-12-11T17:29:55.534Z,25.90
2022-12-11T17:32:23.895Z,21.80
2022-12-11T17:34:52.191Z,23.67
2022-12-11T17:37:22.017Z,25.53
2022-12-11T17:39:54.084Z,23.67
2022-12-11T17:42:22.297Z,26.70
2022-12-11T17:44:50.615Z,24.50
2022-12-11T17:47:19.460Z,24.67
2022-12-11T17:49:50.007Z,28.57
2022-12-11T17:52:18.292Z,27.27
2022-12-11T17:54:49.114Z,23.53
2022-12-11T17:57:18.571Z,23.13
2022-12-11T17:59:46.821Z,23.57
2022-12-11T18:02:15.451Z,23.70
2022-12-11T18:04:43.607Z,20.30
2022-12-11T18:07:11.729Z,23.60
2022-12-11T18:09:41.304Z,28.40
2022-12-11T18:12:10.299Z,26.07
2022-12-11T18:14:39.781Z,24.77
2022-12-11T18:17:10.349Z,29.07
2022-12-11T18:19:44.432Z,28.60
2022-12-11T18:22:16.829Z,28.20
2022-12-11T18:24:47.271Z,25.27
2022-12-11T18:27:15.539Z,25.43
2022-12-11T18:29:45.037Z,25.73
2022-12-11T18:32:15.235Z,23.80
2022-12-11T18:34:45.574Z,26.57
2022-12-11T18:37:16.324Z,23.77
2022-12-11T18:39:44.395Z,26.07
2022-12-11T18:45:05.176Z,25.63
2022-12-11T18:47:33.472Z,24.70
2022-12-11T18:50:07.429Z,26.23
2022-12-11T18:52:36.381Z,24.50
2022-12-11T18:55:07.625Z,28.20
2022-12-11T18:57:38.083Z,25.20
2022-12-11T19:00:09.110Z,25.63
2022-12-11T19:02:37.182Z,26.00
2022-12-11T19:05:05.722Z,26.90
2022-12-11T19:07:34.860Z,29.97
2022-12-11T19:10:03.280Z,27.80
2022-12-11T19:12:34.424Z,26.30
2022-12-11T19:15:05.212Z,29.87
2022-12-11T19:17:34.903Z,25.63
2022-12-11T19:20:25.057Z,25.20
2022-12-11T19:22:53.802Z,29.27
2022-12-11T19:25:21.977Z,31.67
2022-12-11T19:27:50.456Z,27.53
2022-12-11T19:30:20.825Z,26.70
2022-12-11T19:32:50.449Z,29.63
2022-12-11T19:35:20.928Z,30.60
2022-12-11T19:37:51.611Z,28.20
2022-12-11T19:40:26.098Z,28.60
2022-12-11T19:42:54.739Z,28.80
2022-12-11T19:45:22.863Z,27.30
2022-12-11T19:47:54.688Z,33.70
2022-12-11T19:50:22.877Z,31.93
2022-12-11T19:52:51.052Z,32.07
2022-12-11T19:55:21.512Z,32.33
2022-12-11T19:57:52.687Z,31.07
2022-12-11T20:00:21.031Z,33.67
2022-12-11T20:02:51.280Z,31.47
2022-12-11T20:05:20.748Z,30.53
2022-12-11T20:07:48.915Z,33.43
2022-12-11T20:10:19.367Z,39.77
2022-12-11T20:12:49.691Z,28.47
2022-12-11T20:15:19.770Z,31.40
2022-12-11T20:17:47.910Z,36.43
2022-12-11T20:20:16.155Z,36.30
2022-12-11T20:22:45.630Z,31.93
2022-12-11T20:25:14.235Z,30.83
2022-12-11T20:27:42.676Z,33.13
2022-12-11T20:30:13.121Z,29.63
2022-12-11T20:32:41.409Z,33.67
2022-12-11T20:35:11.260Z,28.43
2022-12-11T20:37:39.648Z,30.43
2022-12-11T20:40:10.226Z,33.87
2022-12-11T20:42:38.348Z,33.83
2022-12-11T20:45:10.824Z,28.73
2022-12-11T20:47:39.266Z,28.03
2022-12-11T20:50:11.120Z,30.13
2022-12-11T20:52:39.900Z,31.50
2022-12-11T20:55:12.181Z,32.37
2022-12-11T20:57:44.888Z,31.53
2022-12-11T21:00:14.683Z,30.70
2022-12-11T21:02:44.608Z,33.23
2022-12-11T21:05:13.025Z,30.03
2022-12-11T21:07:44.552Z,28.97
2022-12-11T21:10:15.206Z,29.23
2022-12-11T21:12:45.854Z,32.63
2022-12-11T21:15:14.448Z,37.60
2022-12-11T21:17:43.042Z,34.83
2022-12-11T21:20:12.211Z,36.27
2022-12-11T21:22:40.494Z,38.87
2022-12-11T21:25:11.756Z,32.17
2022-12-11T21:27:41.389Z,32.50
2022-12-11T21:30:10.047Z,33.17
2022-12-11T21:32:39.047Z,40.50
2022-12-11T21:35:10.652Z,32.30
2022-12-11T21:37:43.781Z,32.70
2022-12-11T21:40:15.684Z,35.67
2022-12-11T21:42:47.496Z,32.30
2022-12-11T21:48:03.969Z,32.33
2022-12-11T21:50:32.403Z,37.13
2022-12-11T21:53:02.046Z,31.93
2022-12-11T21:55:30.533Z,34.87
2022-12-11T21:58:00.084Z,35.50
2022-12-11T22:00:29.001Z,37.70
2022-12-11T22:02:57.149Z,35.13
2022-12-11T22:05:25.539Z,35.80
2022-12-11T22:07:55.984Z,30.93
2022-12-11T22:10:24.276Z,35.60
2022-12-11T22:12:52.410Z,36.10
2022-12-11T22:15:22.068Z,31.40
2022-12-11T22:17:50.251Z,33.47
2022-12-11T22:20:20.653Z,32.87
2022-12-11T22:22:48.761Z,38.83
2022-12-11T22:25:19.694Z,32.93
2022-12-11T22:27:47.826Z,33.80
2022-12-11T22:30:18.185Z,35.73
2022-12-11T22:32:47.817Z,33.27
2022-12-11T22:35:16.109Z,37.53
2022-12-11T22:37:44.382Z,34.63
2022-12-11T22:40:15.365Z,35.40
2022-12-11T22:42:45.511Z,36.40
2022-12-11T22:45:14.057Z,36.93
2022-12-11T22:47:42.490Z,36.37
2022-12-11T22:50:14.784Z,35.73
2022-12-11T22:52:45.708Z,34.00
2022-12-11T22:55:16.147Z,36.33
2022-12-11T22:57:44.348Z,34.47
2022-12-11T23:00:14.570Z,34.70
2022-12-11T23:02:42.918Z,35.67
2022-12-11T23:05:15.069Z,34.90
2022-12-11T23:07:45.454Z,34.53
2022-12-11T23:10:13.784Z,36.00
2022-12-11T23:12:44.341Z,37.47
2022-12-11T23:15:14.839Z,42.67
2022-12-11T23:17:43.176Z,36.37
2022-12-11T23:20:12.046Z,36.10
2022-12-11T23:22:41.582Z,40.80
2022-12-11T23:25:13.601Z,39.20
2022-12-11T23:27:42.056Z,37.50
2022-12-11T23:30:11.268Z,36.20
2022-12-11T23:32:39.470Z,37.83
2022-12-11T23:35:10.801Z,41.23
2022-12-11T23:37:39.159Z,39.37
2022-12-11T23:40:14.181Z,36.30
2022-12-11T23:42:42.319Z,38.00
2022-12-11T23:45:11.040Z,38.67
2022-12-11T23:47:39.581Z,39.47
2022-12-11T23:50:10.563Z,38.13
2022-12-11T23:52:38.705Z,38.00
2022-12-11T23:55:11.565Z,41.27
2022-12-11T23:57:42.042Z,40.63
